createdAt,value
2023-03-07T00:01:09.581Z,22.70
2023-03-07T00:03:39.079Z,26.17
2023-03-07T00:06:11.693Z,23.25
2023-03-07T00:08:39.959Z,23.10
2023-03-07T00:11:09.233Z,25.27
2023-03-07T00:13:37.996Z,21.02
2023-03-07T00:16:10.952Z,23.48
2023-03-07T00:18:38.230Z,21.00
2023-03-07T00:21:08.143Z,18.75
2023-03-07T00:23:37.117Z,18.95
2023-03-07T00:26:09.513Z,19.95
2023-03-07T00:28:38.854Z,19.50
2023-03-07T00:31:09.122Z,19.02
2023-03-07T00:33:37.942Z,16.95
2023-03-07T00:36:16.895Z,17.20
2023-03-07T00:38:46.166Z,16.17
2023-03-07T00:41:19.666Z,14.02
2023-03-07T00:43:47.310Z,13.35
2023-03-07T00:46:16.792Z,14.57
2023-03-07T00:48:44.381Z,14.05
2023-03-07T00:51:13.823Z,13.73
2023-03-07T00:53:41.091Z,12.68
2023-03-07T00:56:19.152Z,15.40
2023-03-07T00:58:47.359Z,10.70
2023-03-07T01:01:18.131Z,11.20
2023-03-07T01:03:46.324Z,8.82
2023-03-07T01:06:15.631Z,9.27
2023-03-07T01:08:42.438Z,10.30
2023-03-07T01:11:10.642Z,9.95
2023-03-07T01:13:37.884Z,10.18
2023-03-07T01:16:21.495Z,9.50
2023-03-07T01:18:54.105Z,6.90
2023-03-07T01:21:25.174Z,8.75
2023-03-07T01:23:55.280Z,8.88
2023-03-07T01:26:28.358Z,8.13
2023-03-07T01:28:58.857Z,9.30
2023-03-07T01:31:27.323Z,7.55
2023-03-07T01:33:54.597Z,6.32
2023-03-07T01:36:25.394Z,6.30
2023-03-07T01:38:55.173Z,4.80
2023-03-07T01:41:22.793Z,4.32
2023-03-07T01:43:49.981Z,4.88
2023-03-07T01:46:22.232Z,4.25
2023-03-07T01:48:56.395Z,4.20
2023-03-07T01:51:24.688Z,4.53
2023-03-07T01:53:53.538Z,4.60
2023-03-07T01:56:21.887Z,3.97
2023-03-07T01:58:49.462Z,3.83
2023-03-07T02:01:17.633Z,4.57
2023-03-07T02:04:06.357Z,3.53
2023-03-07T02:06:36.216Z,4.53
2023-03-07T02:09:05.769Z,4.18
2023-03-07T02:11:32.868Z,4.15
2023-03-07T02:13:59.716Z,3.63
2023-03-07T02:16:26.672Z,4.75
2023-03-07T02:18:53.556Z,4.88
2023-03-07T02:21:39.266Z,4.15
2023-03-07T02:24:22.716Z,4.80
2023-03-07T02:26:55.944Z,5.63
2023-03-07T02:29:22.936Z,4.07
2023-03-07T02:31:49.748Z,4.38
2023-03-07T02:34:29.580Z,4.28
2023-03-07T02:37:05.213Z,4.25
2023-03-07T02:39:32.566Z,5.05
2023-03-07T02:42:04.577Z,7.15
2023-03-07T02:44:31.438Z,5.03
2023-03-07T02:46:58.516Z,6.13
2023-03-07T02:49:25.356Z,5.13
2023-03-07T02:51:57.543Z,5.60
2023-03-07T02:54:25.278Z,5.90
2023-03-07T02:56:52.401Z,6.60
2023-03-07T02:59:19.587Z,6.85
2023-03-07T03:01:46.968Z,6.55
2023-03-07T03:04:13.808Z,6.75
2023-03-07T03:06:40.636Z,12.45
2023-03-07T03:09:07.675Z,7.20
2023-03-07T03:11:34.411Z,7.10
2023-03-07T03:14:01.183Z,6.65
2023-03-07T03:16:27.977Z,7.03
2023-03-07T03:18:54.814Z,8.00
2023-03-07T03:21:21.736Z,6.72
2023-03-07T03:23:48.523Z,7.90
2023-03-07T03:26:15.329Z,7.93
2023-03-07T03:28:42.123Z,7.70
2023-03-07T03:31:11.605Z,7.25
2023-03-07T03:33:39.337Z,9.20
2023-03-07T03:36:15.052Z,8.15
2023-03-07T03:38:42.166Z,8.25
2023-03-07T03:41:12.451Z,8.95
2023-03-07T03:43:39.335Z,10.00
2023-03-07T03:46:06.884Z,8.38
2023-03-07T03:48:33.673Z,8.10
2023-03-07T03:51:12.739Z,11.05
2023-03-07T03:53:40.263Z,8.00
2023-03-07T03:56:11.918Z,9.75
2023-03-07T03:58:39.499Z,11.10
2023-03-07T04:01:08.470Z,10.35
2023-03-07T04:03:42.585Z,11.90
2023-03-07T04:08:39.706Z,14.40
2023-03-07T04:11:07.024Z,10.75
2023-03-07T04:13:35.036Z,11.07
2023-03-07T04:16:02.208Z,11.70
2023-03-07T04:18:29.222Z,11.05
2023-03-07T04:20:55.994Z,10.80
2023-03-07T04:23:24.469Z,12.38
2023-03-07T04:25:55.708Z,11.43
2023-03-07T04:28:24.898Z,13.15
2023-03-07T04:30:56.437Z,11.48
2023-03-07T04:33:24.216Z,15.40
2023-03-07T04:35:51.293Z,14.20
2023-03-07T04:38:18.248Z,13.55
2023-03-07T04:40:45.030Z,14.23
2023-03-07T04:43:12.006Z,14.75
2023-03-07T04:45:39.550Z,15.05
2023-03-07T04:48:06.906Z,16.33
2023-03-07T04:50:33.725Z,18.58
2023-03-07T04:53:00.507Z,16.52
2023-03-07T04:55:27.240Z,15.07
2023-03-07T04:57:54.424Z,17.77
2023-03-07T05:00:21.372Z,16.92
2023-03-07T05:02:48.818Z,18.05
2023-03-07T05:05:16.721Z,15.77
2023-03-07T05:07:44.223Z,16.33
2023-03-07T05:10:12.414Z,16.30
2023-03-07T05:12:39.271Z,16.13
2023-03-07T05:15:06.908Z,17.65
2023-03-07T05:17:33.938Z,18.02
2023-03-07T05:20:01.515Z,18.77
2023-03-07T05:22:28.354Z,18.00
2023-03-07T05:24:55.100Z,17.23
2023-03-07T05:27:21.763Z,16.42
2023-03-07T05:29:48.542Z,18.17
2023-03-07T05:32:15.715Z,19.23
2023-03-07T05:34:48.212Z,17.92
2023-03-07T05:37:15.215Z,17.75
2023-03-07T05:39:41.986Z,18.98
2023-03-07T05:42:08.887Z,17.40
2023-03-07T05:44:35.738Z,16.17
2023-03-07T05:47:03.717Z,17.83
2023-03-07T05:49:30.486Z,17.70
2023-03-07T05:51:57.218Z,15.10
2023-03-07T05:54:25.089Z,16.45
2023-03-07T05:56:51.847Z,17.42
2023-03-07T05:59:21.416Z,14.70
2023-03-07T06:01:48.320Z,16.67
2023-03-07T06:04:16.257Z,16.77
2023-03-07T06:06:42.953Z,17.25
2023-03-07T06:09:12.856Z,15.40
2023-03-07T06:11:40.634Z,13.10
2023-03-07T06:14:07.449Z,14.20
2023-03-07T06:16:34.281Z,15.23
2023-03-07T06:19:01.088Z,15.63
2023-03-07T06:21:27.794Z,19.23
2023-03-07T06:23:56.162Z,16.52
2023-03-07T06:26:25.276Z,18.75
2023-03-07T06:28:53.342Z,16.90
2023-03-07T06:31:31.696Z,15.07
2023-03-07T06:33:59.964Z,15.23
2023-03-07T06:36:26.786Z,17.27
2023-03-07T06:38:53.578Z,15.35
2023-03-07T06:41:20.448Z,15.73
2023-03-07T06:43:50.814Z,16.40
2023-03-07T06:46:19.208Z,17.77
2023-03-07T06:48:45.998Z,15.50
2023-03-07T06:51:12.813Z,18.48
2023-03-07T06:53:39.558Z,19.13
2023-03-07T06:56:06.716Z,13.80
2023-03-07T06:58:33.551Z,14.18
2023-03-07T07:01:01.955Z,15.55
2023-03-07T07:03:29.369Z,14.88
2023-03-07T07:06:01.022Z,16.27
2023-03-07T07:08:29.155Z,16.65
2023-03-07T07:10:58.318Z,16.08
2023-03-07T07:13:25.144Z,15.02
2023-03-07T07:15:51.915Z,17.20
2023-03-07T07:18:18.633Z,15.90
2023-03-07T07:20:45.390Z,16.90
2023-03-07T07:23:12.368Z,15.85
2023-03-07T07:25:39.298Z,14.00
2023-03-07T07:28:06.052Z,16.30
2023-03-07T07:30:32.771Z,17.58
2023-03-07T07:33:00.071Z,13.85
2023-03-07T07:35:26.939Z,14.25
2023-03-07T07:38:07.803Z,15.23
2023-03-07T07:40:34.554Z,15.73
2023-03-07T07:43:02.719Z,14.48
2023-03-07T07:45:29.502Z,14.00
2023-03-07T07:47:56.626Z,18.38
2023-03-07T07:50:27.671Z,15.43
2023-03-07T07:52:57.378Z,17.35
2023-03-07T07:55:25.147Z,14.93
2023-03-07T07:57:52.488Z,15.48
2023-03-07T08:00:21.582Z,16.23
2023-03-07T08:02:52.484Z,16.20
2023-03-07T08:05:20.822Z,18.88
2023-03-07T08:07:48.497Z,15.60
2023-03-07T08:10:16.127Z,15.70
2023-03-07T08:12:44.221Z,13.63
2023-03-07T08:15:12.250Z,14.07
2023-03-07T08:17:39.342Z,15.05
2023-03-07T08:20:10.069Z,16.50
2023-03-07T08:22:37.523Z,14.35
2023-03-07T08:25:05.876Z,12.82
2023-03-07T08:27:33.118Z,14.80
2023-03-07T08:30:01.387Z,16.60
2023-03-07T08:32:29.515Z,12.32
2023-03-07T08:34:57.557Z,12.32
2023-03-07T08:37:24.805Z,14.45
2023-03-07T08:39:51.964Z,12.15
2023-03-07T08:42:18.782Z,12.10
2023-03-07T08:44:45.536Z,11.25
2023-03-07T08:47:13.467Z,11.68
2023-03-07T08:49:40.973Z,15.70
2023-03-07T08:52:07.703Z,13.07
2023-03-07T08:54:34.811Z,13.43
2023-03-07T08:57:01.538Z,13.23
2023-03-07T08:59:28.615Z,12.13
2023-03-07T09:01:56.987Z,12.23
2023-03-07T09:04:24.240Z,13.00
2023-03-07T09:06:51.398Z,11.98
2023-03-07T09:09:18.162Z,11.45
2023-03-07T09:11:49.659Z,13.00
2023-03-07T09:14:16.449Z,11.57
2023-03-07T09:16:43.235Z,11.48
2023-03-07T09:19:10.296Z,11.25
2023-03-07T09:21:37.854Z,11.85
2023-03-07T09:24:06.050Z,11.40
2023-03-07T09:26:32.855Z,12.70
2023-03-07T09:28:59.811Z,12.98
2023-03-07T09:31:26.848Z,11.10
2023-03-07T09:33:56.702Z,9.63
2023-03-07T09:36:23.485Z,12.20
2023-03-07T09:38:51.274Z,12.00
2023-03-07T09:41:48.899Z,9.32
2023-03-07T09:44:24.725Z,11.77
2023-03-07T09:47:31.960Z,10.52
2023-03-07T09:50:00.620Z,10.00
2023-03-07T09:52:31.592Z,10.50
2023-03-07T09:55:13.615Z,8.55
2023-03-07T09:57:51.581Z,9.95
2023-03-07T10:00:40.407Z,9.70
2023-03-07T10:03:37.752Z,7.78
2023-03-07T10:06:19.876Z,8.68
2023-03-07T10:08:46.685Z,9.48
2023-03-07T10:11:34.615Z,7.60
2023-03-07T10:14:09.044Z,15.80
2023-03-07T10:16:54.369Z,7.38
2023-03-07T10:19:36.795Z,7.93
2023-03-07T10:22:27.228Z,6.55
2023-03-07T10:25:01.060Z,5.15
2023-03-07T10:27:30.700Z,6.20
2023-03-07T10:29:59.782Z,6.30
2023-03-07T10:32:39.455Z,7.18
2023-03-07T10:35:13.265Z,8.48
2023-03-07T10:37:56.712Z,8.07
2023-03-07T10:40:29.329Z,5.47
2023-03-07T10:42:58.252Z,6.53
2023-03-07T10:45:29.797Z,7.32
2023-03-07T10:48:05.156Z,7.32
2023-03-07T10:51:01.241Z,6.15
2023-03-07T10:53:34.936Z,6.20
2023-03-07T10:56:13.644Z,5.13
2023-03-07T10:58:58.998Z,5.90
2023-03-07T11:01:28.774Z,5.63
2023-03-07T11:04:02.864Z,5.90
2023-03-07T11:09:09.481Z,5.40
2023-03-07T11:11:38.265Z,5.72
2023-03-07T11:14:14.708Z,6.05
2023-03-07T11:16:50.043Z,5.57
2023-03-07T11:19:55.706Z,8.50
2023-03-07T11:22:29.252Z,6.05
2023-03-07T11:25:15.967Z,7.60
2023-03-07T11:27:45.472Z,6.63
2023-03-07T11:30:25.813Z,4.57
2023-03-07T11:33:00.690Z,5.28
2023-03-07T11:35:50.833Z,4.82
2023-03-07T11:38:36.717Z,4.95
2023-03-07T11:41:10.486Z,5.88
2023-03-07T11:44:00.205Z,5.70
2023-03-07T11:47:05.158Z,5.50
2023-03-07T11:49:40.436Z,4.75
2023-03-07T11:52:36.847Z,6.88
2023-03-07T11:55:24.978Z,7.93
2023-03-07T11:58:22.127Z,4.85
2023-03-07T12:00:48.781Z,7.50
2023-03-07T12:03:24.950Z,7.10
2023-03-07T12:06:28.958Z,7.13
2023-03-07T12:09:20.630Z,8.00
2023-03-07T12:12:22.879Z,6.60
2023-03-07T12:15:23.208Z,6.22
2023-03-07T12:18:05.232Z,7.50
2023-03-07T12:20:56.032Z,8.73
2023-03-07T12:23:39.222Z,8.15
2023-03-07T12:26:26.276Z,8.23
2023-03-07T12:29:01.948Z,8.57
2023-03-07T12:31:36.185Z,9.02
2023-03-07T12:34:29.845Z,6.90
2023-03-07T12:37:02.811Z,8.57
2023-03-07T12:39:39.628Z,7.88
2023-03-07T12:42:24.546Z,9.75
2023-03-07T12:45:08.632Z,7.38
2023-03-07T12:47:53.881Z,8.25
2023-03-07T12:50:30.991Z,7.85
2023-03-07T12:53:18.822Z,9.35
2023-03-07T12:55:49.790Z,9.52
2023-03-07T12:58:42.011Z,8.95
2023-03-07T13:01:27.520Z,8.25
2023-03-07T13:04:06.325Z,9.07
2023-03-07T13:06:34.306Z,7.28
2023-03-07T13:09:04.090Z,9.20
2023-03-07T13:11:37.996Z,10.15
2023-03-07T13:14:05.754Z,7.57
2023-03-07T13:16:42.528Z,6.40
2023-03-07T13:19:30.981Z,10.18
2023-03-07T13:21:59.592Z,7.80
2023-03-07T13:24:42.444Z,8.38
2023-03-07T13:27:17.652Z,8.50
2023-03-07T13:30:03.360Z,9.57
2023-03-07T13:32:51.860Z,6.90
2023-03-07T13:35:28.220Z,7.32
2023-03-07T13:38:29.089Z,6.93
2023-03-07T13:40:58.492Z,6.70
2023-03-07T13:43:27.872Z,8.93
2023-03-07T13:46:25.384Z,7.75
2023-03-07T13:48:55.145Z,8.95
2023-03-07T13:51:22.241Z,7.35
2023-03-07T13:54:10.306Z,9.82
2023-03-07T13:56:42.674Z,6.65
2023-03-07T13:59:28.213Z,6.65
2023-03-07T14:02:10.680Z,6.60
2023-03-07T14:04:54.603Z,8.35
2023-03-07T14:07:21.468Z,8.70
2023-03-07T14:09:50.816Z,7.00
2023-03-07T14:12:44.482Z,8.48
2023-03-07T14:15:27.680Z,8.02
2023-03-07T14:18:20.688Z,7.20
2023-03-07T14:21:08.048Z,7.78
2023-03-07T14:23:37.801Z,8.57
2023-03-07T14:26:34.927Z,7.70
2023-03-07T14:29:12.932Z,8.80
2023-03-07T14:31:42.900Z,9.38
2023-03-07T14:34:17.718Z,10.32
2023-03-07T14:36:46.232Z,7.82
2023-03-07T14:39:15.034Z,8.00
2023-03-07T14:41:47.769Z,9.88
2023-03-07T14:44:26.348Z,6.80
2023-03-07T14:47:15.342Z,9.15
2023-03-07T14:50:00.145Z,9.65
2023-03-07T14:52:31.304Z,8.25
2023-03-07T14:55:03.809Z,9.05
2023-03-07T14:57:46.139Z,9.70
2023-03-07T15:00:32.688Z,9.80
2023-03-07T15:03:08.530Z,7.53
2023-03-07T15:05:45.069Z,9.02
2023-03-07T15:08:41.335Z,9.65
2023-03-07T15:11:32.921Z,12.02
2023-03-07T15:14:06.569Z,8.82
2023-03-07T15:16:38.082Z,11.40
2023-03-07T15:19:32.929Z,10.93
2023-03-07T15:24:38.391Z,5.85
2023-03-07T15:27:10.466Z,6.05
2023-03-07T15:29:39.480Z,4.75
2023-03-07T15:32:26.792Z,4.35
2023-03-07T15:35:16.842Z,2.95
2023-03-07T15:37:58.389Z,3.15
2023-03-07T15:40:30.721Z,4.15
2023-03-07T15:42:59.640Z,3.05
2023-03-07T15:45:38.556Z,2.85
2023-03-07T15:48:43.458Z,3.20
2023-03-07T15:51:22.992Z,2.08
2023-03-07T15:53:59.863Z,1.60
2023-03-07T15:56:33.373Z,2.05
2023-03-07T15:59:10.061Z,2.60
2023-03-07T16:01:39.698Z,1.70
2023-03-07T16:04:27.604Z,1.20
2023-03-07T16:06:54.330Z,1.92
2023-03-07T16:09:21.192Z,2.58
2023-03-07T16:11:49.341Z,2.03
2023-03-07T16:14:16.034Z,3.42
2023-03-07T16:16:47.206Z,4.15
2023-03-07T16:19:14.549Z,4.13
2023-03-07T16:21:41.375Z,7.35
2023-03-07T16:24:10.508Z,5.00
2023-03-07T16:26:39.736Z,3.65
2023-03-07T16:29:08.865Z,3.90
2023-03-07T16:31:35.755Z,8.65
2023-03-07T16:34:02.630Z,6.93
2023-03-07T16:36:29.568Z,5.47
2023-03-07T16:38:56.350Z,3.58
2023-03-07T16:41:24.134Z,4.63
2023-03-07T16:43:56.102Z,4.15
2023-03-07T16:46:24.387Z,3.55
2023-03-07T16:48:51.296Z,4.63
2023-03-07T16:51:21.122Z,6.95
2023-03-07T16:53:52.050Z,9.02
2023-03-07T16:56:26.632Z,12.25
2023-03-07T16:58:57.402Z,11.77
2023-03-07T17:01:24.234Z,10.35
2023-03-07T17:03:51.113Z,9.73
2023-03-07T17:06:19.128Z,9.93
2023-03-07T17:08:47.124Z,12.18
2023-03-07T17:11:25.703Z,12.77
2023-03-07T17:13:59.568Z,11.57
2023-03-07T17:16:27.291Z,18.02
2023-03-07T17:18:55.459Z,13.80
2023-03-07T17:21:22.923Z,12.63
2023-03-07T17:23:50.540Z,9.65
2023-03-07T17:26:40.601Z,9.52
2023-03-07T17:29:29.074Z,9.43
2023-03-07T17:31:57.258Z,10.88
2023-03-07T17:34:26.993Z,10.73
2023-03-07T17:36:56.082Z,5.72
2023-03-07T17:39:24.338Z,5.32
2023-03-07T17:41:51.138Z,15.70
2023-03-07T17:44:18.250Z,22.90
2023-03-07T17:46:45.149Z,19.63
2023-03-07T17:49:12.097Z,16.88
2023-03-07T17:51:41.699Z,14.00
2023-03-07T17:54:08.492Z,11.88
2023-03-07T17:56:36.437Z,12.40
2023-03-07T17:59:04.321Z,12.73
2023-03-07T18:01:33.853Z,21.95
2023-03-07T18:04:02.147Z,9.75
2023-03-07T18:06:29.002Z,6.15
2023-03-07T18:08:57.445Z,13.13
2023-03-07T18:11:24.644Z,16.55
2023-03-07T18:13:51.543Z,14.13
2023-03-07T18:16:20.512Z,13.77
2023-03-07T18:18:58.901Z,6.47
2023-03-07T18:21:29.685Z,5.05
2023-03-07T18:23:57.136Z,5.78
2023-03-07T18:26:23.985Z,11.30
2023-03-07T18:28:53.219Z,8.40
2023-03-07T18:31:25.830Z,6.68
2023-03-07T18:33:54.649Z,7.03
2023-03-07T18:36:25.535Z,8.70
2023-03-07T18:38:52.647Z,5.43
2023-03-07T18:41:22.116Z,5.95
2023-03-07T18:43:49.263Z,7.53
2023-03-07T18:46:19.092Z,7.18
2023-03-07T18:48:47.418Z,8.18
2023-03-07T18:51:24.377Z,7.18
2023-03-07T18:53:58.253Z,7.60
2023-03-07T18:56:25.874Z,10.25
2023-03-07T18:58:56.839Z,7.93
2023-03-07T19:01:26.674Z,8.32
2023-03-07T19:03:55.466Z,10.65
2023-03-07T19:06:25.570Z,8.82
2023-03-07T19:08:53.042Z,10.18
2023-03-07T19:11:20.303Z,10.27
2023-03-07T19:13:47.148Z,8.63
2023-03-07T19:16:20.856Z,9.02
2023-03-07T19:18:48.708Z,8.15
2023-03-07T19:21:22.324Z,8.20
2023-03-07T19:23:52.040Z,10.38
2023-03-07T19:26:20.916Z,9.18
2023-03-07T19:28:53.343Z,9.18
2023-03-07T19:31:22.586Z,9.23
2023-03-07T19:33:52.214Z,7.63
2023-03-07T19:36:27.610Z,5.47
2023-03-07T19:38:56.431Z,5.75
2023-03-07T19:41:25.249Z,16.95
2023-03-07T19:43:52.671Z,5.30
2023-03-07T19:46:20.258Z,4.90
2023-03-07T19:48:48.130Z,4.20
2023-03-07T19:51:20.005Z,4.70
2023-03-07T19:53:47.570Z,4.50
2023-03-07T19:56:32.794Z,5.28
2023-03-07T19:59:01.307Z,5.85
2023-03-07T20:01:29.371Z,5.28
2023-03-07T20:03:56.904Z,5.10
2023-03-07T20:06:26.552Z,5.00
2023-03-07T20:08:54.599Z,6.75
2023-03-07T20:11:26.740Z,6.90
2023-03-07T20:13:56.758Z,5.65
2023-03-07T20:16:24.704Z,9.13
2023-03-07T20:18:53.022Z,7.03
2023-03-07T20:21:21.898Z,7.15
2023-03-07T20:23:50.735Z,8.60
2023-03-07T20:26:25.121Z,8.45
2023-03-07T20:28:53.612Z,12.70
2023-03-07T20:31:22.196Z,11.75
2023-03-07T20:33:50.127Z,11.65
2023-03-07T20:36:22.703Z,13.88
2023-03-07T20:38:55.178Z,12.88
2023-03-07T20:41:27.516Z,11.18
2023-03-07T20:43:57.001Z,10.23
2023-03-07T20:46:25.208Z,10.75
2023-03-07T20:48:55.024Z,10.48
2023-03-07T20:51:24.161Z,11.65
2023-03-07T20:53:57.558Z,11.98
2023-03-07T20:56:26.408Z,9.63
2023-03-07T20:58:55.655Z,12.38
2023-03-07T21:01:23.344Z,12.65
2023-03-07T21:03:51.750Z,13.27
2023-03-07T21:06:21.145Z,16.27
2023-03-07T21:08:48.799Z,13.35
2023-03-07T21:11:19.070Z,13.50
2023-03-07T21:13:48.077Z,13.80
2023-03-07T21:16:18.295Z,14.20
2023-03-07T21:18:45.821Z,14.95
2023-03-07T21:21:22.816Z,13.77
2023-03-07T21:23:49.863Z,12.30
2023-03-07T21:26:30.646Z,15.23
2023-03-07T21:28:58.442Z,13.52
2023-03-07T21:31:33.040Z,15.15
2023-03-07T21:34:02.879Z,15.60
2023-03-07T21:36:31.543Z,13.68
2023-03-07T21:38:59.477Z,13.57
2023-03-07T21:41:26.896Z,15.80
2023-03-07T21:43:54.912Z,13.77
2023-03-07T21:46:21.858Z,14.55
2023-03-07T21:48:48.846Z,15.30
2023-03-07T21:51:16.053Z,14.98
2023-03-07T21:53:42.825Z,14.93
2023-03-07T21:56:12.171Z,14.00
2023-03-07T21:58:40.071Z,14.43
2023-03-07T22:01:20.334Z,15.13
2023-03-07T22:03:53.920Z,12.82
2023-03-07T22:06:25.108Z,11.75
2023-03-07T22:09:13.653Z,13.73
2023-03-07T22:11:40.370Z,10.48
2023-03-07T22:14:08.153Z,12.18
2023-03-07T22:16:35.176Z,10.68
2023-03-07T22:19:01.923Z,11.98
2023-03-07T22:21:29.043Z,11.65
2023-03-07T22:23:58.203Z,10.57
2023-03-07T22:26:25.904Z,11.90
2023-03-07T22:28:53.219Z,9.68
2023-03-07T22:31:23.298Z,11.32
2023-03-07T22:33:50.253Z,9.65
2023-03-07T22:36:17.331Z,9.80
2023-03-07T22:38:44.400Z,8.85
2023-03-07T22:41:15.104Z,9.98
2023-03-07T22:43:42.402Z,9.30
2023-03-07T22:46:10.220Z,10.00
2023-03-07T22:48:37.591Z,11.20
2023-03-07T22:51:04.879Z,8.93
2023-03-07T22:53:32.792Z,10.23
2023-03-07T22:56:00.980Z,10.43
2023-03-07T22:58:28.934Z,9.35
2023-03-07T23:00:58.193Z,11.32
2023-03-07T23:03:25.210Z,9.32
2023-03-07T23:05:52.401Z,10.88
2023-03-07T23:08:20.433Z,10.52
2023-03-07T23:10:47.258Z,9.73
2023-03-07T23:13:16.080Z,17.20
2023-03-07T23:15:45.341Z,11.13
2023-03-07T23:18:12.303Z,9.68
2023-03-07T23:20:42.100Z,11.07
2023-03-07T23:23:09.145Z,9.45
2023-03-07T23:25:41.269Z,10.70
2023-03-07T23:28:09.411Z,10.40
2023-03-07T23:30:39.806Z,8.45
2023-03-07T23:33:06.983Z,9.13
2023-03-07T23:35:34.481Z,7.72
2023-03-07T23:38:01.752Z,7.82
2023-03-07T23:40:28.522Z,7.78
2023-03-07T23:42:55.697Z,8.95
2023-03-07T23:45:22.580Z,8.65
2023-03-07T23:47:49.802Z,8.18
2023-03-07T23:50:16.821Z,7.18
2023-03-07T23:52:44.017Z,7.03
2023-03-07T23:55:11.083Z,7.38
2023-03-07T23:57:39.130Z,6.78
